Time;durP1;ratioP1;P1;durP2;ratioP2;P2;SDS_P1;SDS_P2;PMS_P1;PMS_P2;Temp;Humidity;BMP_temperature;BMP_pressure;BME280_temperature;BME280_humidity;BME280_pressure;Samples;Min_cycle;Max_cycle;Signal;HPM_P1;HPM_P2
2022/01/01 00:01:34;;;;;;;13.40;8.95;;;;;;;10.62;100.00;100121.63;1718834;82;26082;-79
2022/01/01 00:04:00;;;;;;;13.18;9.25;;;;;;;10.62;100.00;100118.45;1731978;81;27528;-79
2022/01/01 00:06:26;;;;;;;17.40;10.00;;;;;;;10.62;100.00;100123.80;1723924;82;25883;-81
2022/01/01 00:08:53;;;;;;;12.23;8.95;;;;;;;10.64;100.00;100126.27;1721849;82;25800;-79
2022/01/01 00:11:19;;;;;;;12.65;8.80;;;;;;;10.64;100.00;100132.47;1717541;82;26475;-79
2022/01/01 00:13:45;;;;;;;10.05;8.65;;;;;;;10.64;100.00;100138.33;1730420;82;25799;-79
2022/01/01 00:16:11;;;;;;;14.45;9.35;;;;;;;10.64;100.00;100137.82;1712332;82;27457;-79
2022/01/01 00:18:41;;;;;;;12.47;8.40;;;;;;;10.64;100.00;100145.02;1660589;85;25828;-79
2022/01/01 00:21:07;;;;;;;11.73;8.95;;;;;;;10.64;100.00;100147.70;1662364;85;25868;-79
2022/01/01 00:23:34;;;;;;;13.68;8.58;;;;;;;10.64;100.00;100146.36;1659126;85;25854;-79
2022/01/01 00:26:00;;;;;;;13.40;9.50;;;;;;;10.64;100.00;100149.04;1682858;84;25739;-79
2022/01/01 00:28:26;;;;;;;13.22;8.88;;;;;;;10.64;100.00;100146.36;1681611;84;27517;-79
2022/01/01 00:30:52;;;;;;;12.37;7.70;;;;;;;10.65;100.00;100157.38;1687916;84;25953;-79
2022/01/01 00:33:19;;;;;;;12.33;8.25;;;;;;;10.66;100.00;100159.88;1684892;84;26213;-79
2022/01/01 00:35:45;;;;;;;13.60;8.05;;;;;;;10.67;100.00;100166.06;1667614;85;25808;-79
2022/01/01 00:38:12;;;;;;;11.50;7.87;;;;;;;10.68;100.00;100167.20;1681854;84;26511;-79
2022/01/01 00:40:38;;;;;;;11.45;8.00;;;;;;;10.70;100.00;100172.34;1662049;85;27666;-79
2022/01/01 00:43:04;;;;;;;10.75;7.50;;;;;;;10.70;100.00;100173.69;1686255;84;25869;-79
2022/01/01 00:45:30;;;;;;;8.50;7.15;;;;;;;10.70;100.00;100181.73;1686504;84;25846;-79
2022/01/01 00:47:57;;;;;;;10.03;6.75;;;;;;;10.70;100.00;100187.92;1665439;85;26355;-78
2022/01/01 00:50:23;;;;;;;7.47;6.33;;;;;;;10.69;100.00;100190.27;1686340;84;25841;-78
2022/01/01 00:52:51;;;;;;;9.23;5.95;;;;;;;10.69;100.00;100194.82;1646126;84;27709;-79
2022/01/01 00:55:19;;;;;;;6.50;5.40;;;;;;;10.65;100.00;100210.44;1665660;85;25784;-79
2022/01/01 00:57:47;;;;;;;7.42;5.60;;;;;;;10.63;100.00;100212.48;1688096;84;26047;-79
2022/01/01 01:00:13;;;;;;;7.33;5.17;;;;;;;10.63;100.00;100214.33;1665902;85;26600;-79
2022/01/01 01:02:39;;;;;;;6.20;5.20;;;;;;;10.65;100.00;100213.62;1681397;84;26790;-79
2022/01/01 01:05:06;;;;;;;6.78;4.95;;;;;;;10.64;100.00;100221.36;1661267;85;27624;-79
2022/01/01 01:07:35;;;;;;;4.90;3.85;;;;;;;10.64;100.00;100217.34;1663272;85;25818;-79
2022/01/01 01:10:05;;;;;;;5.00;3.83;;;;;;;10.63;100.00;100217.84;1684637;84;25610;-79
2022/01/01 01:12:42;;;;;;;5.35;4.08;;;;;;;10.62;100.00;100223.41;1685835;84;26002;-79
2022/01/01 01:15:04;;;;;;;4.67;4.12;;;;;;;10.60;100.00;100232.15;1657438;85;26105;-79
2022/01/01 01:17:30;;;;;;;5.90;4.35;;;;;;;10.58;100.00;100232.86;1681588;84;27492;-79
2022/01/01 01:19:56;;;;;;;7.17;4.20;;;;;;;10.56;100.00;100227.67;1685393;84;25900;-79
2022/01/01 01:22:23;;;;;;;5.28;4.72;;;;;;;10.57;100.00;100229.34;1685229;84;25824;-79
2022/01/01 01:24:49;;;;;;;6.22;4.60;;;;;;;10.59;100.00;100235.84;1682699;84;25886;-79
2022/01/01 01:27:15;;;;;;;6.03;4.60;;;;;;;10.58;100.00;100246.25;1682480;84;25852;-80
2022/01/01 01:29:45;;;;;;;5.87;4.67;;;;;;;10.57;100.00;100246.75;1683072;84;28350;-78
2022/01/01 01:32:11;;;;;;;5.30;4.28;;;;;;;10.57;100.00;100243.23;1682650;84;25926;-79
2022/01/01 01:34:38;;;;;;;8.28;4.00;;;;;;;10.57;100.00;100249.94;1658656;85;26010;-79
2022/01/01 01:37:04;;;;;;;5.58;4.80;;;;;;;10.55;100.00;100248.80;1682836;84;25775;-79
2022/01/01 01:39:30;;;;;;;6.87;4.58;;;;;;;10.55;100.00;100251.98;1659747;85;25925;-79
2022/01/01 01:41:56;;;;;;;6.08;4.87;;;;;;;10.53;100.00;100253.53;1686479;84;27436;-79
2022/01/01 01:44:32;;;;;;;5.58;4.55;;;;;;;10.52;100.00;100251.05;1683496;84;25995;-79
2022/01/01 01:47:03;;;;;;;7.62;5.08;;;;;;;10.49;100.00;100252.27;1658628;84;25831;-79
2022/01/01 01:49:29;;;;;;;5.95;4.83;;;;;;;10.47;100.00;100248.12;1685104;84;26456;-79
2022/01/01 01:51:56;;;;;;;5.28;4.67;;;;;;;10.45;100.00;100249.66;1686256;84;25792;-79
2022/01/01 01:54:23;;;;;;;5.47;4.37;;;;;;;10.44;100.00;100251.17;1658310;85;28258;-79
2022/01/01 01:56:49;;;;;;;7.03;5.08;;;;;;;10.43;100.00;100268.27;1688105;84;25799;-79
2022/01/01 01:59:15;;;;;;;5.20;3.95;;;;;;;10.43;100.00;100262.92;1682478;84;25870;-79
2022/01/01 02:01:42;;;;;;;9.00;5.92;;;;;;;10.41;100.00;100265.80;1684106;84;25796;-79
2022/01/01 02:04:08;;;;;;;4.90;4.08;;;;;;;10.38;100.00;100270.19;1681938;84;25668;-79
2022/01/01 02:06:35;;;;;;;6.65;4.42;;;;;;;10.37;100.00;100279.23;1659994;85;27640;-79
2022/01/01 02:09:01;;;;;;;4.90;4.17;;;;;;;10.35;100.00;100277.26;1678401;84;25859;-79
2022/01/01 02:11:27;;;;;;;5.37;4.37;;;;;;;10.33;100.00;100269.12;1724993;81;26608;-79
2022/01/01 02:18:50;;;;;;;5.37;3.92;;;;;;;10.30;100.00;100277.03;1724935;81;27699;-79
2022/01/01 02:21:17;;;;;;;5.92;4.28;;;;;;;10.30;100.00;100286.90;1720754;82;25937;-79
2022/01/01 02:23:46;;;;;;;6.78;4.60;;;;;;;10.29;100.00;100291.92;1724850;81;25907;-79
2022/01/01 02:26:15;;;;;;;5.87;4.10;;;;;;;10.27;100.00;100303.33;1726529;81;25957;-79
2022/01/01 02:28:45;;;;;;;6.83;4.17;;;;;;;10.24;100.00;100300.55;1730980;81;25787;-79
2022/01/01 02:31:13;;;;;;;6.12;3.95;;;;;;;10.21;100.00;100300.09;1725132;81;27459;-79
2022/01/01 02:33:39;;;;;;;7.35;4.03;;;;;;;10.18;100.00;100298.63;1723994;81;26575;-79
2022/01/01 02:36:06;;;;;;;5.45;3.60;;;;;;;10.19;100.00;100296.78;1726481;81;25797;-79
2022/01/01 02:38:33;;;;;;;5.67;3.30;;;;;;;10.18;100.00;100314.67;1725041;81;26231;-79
2022/01/01 02:41:00;;;;;;;6.78;3.90;;;;;;;10.14;100.00;100305.91;1720818;83;26462;-79
2022/01/01 02:43:26;;;;;;;3.75;3.02;;;;;;;10.13;100.00;100314.44;1724980;81;27967;-80
2022/01/01 02:45:54;;;;;;;4.72;3.62;;;;;;;10.12;100.00;100310.59;1725116;81;26507;-79
2022/01/01 02:48:20;;;;;;;6.28;3.35;;;;;;;10.10;100.00;100309.42;1725178;81;25752;-79
2022/01/01 02:50:51;;;;;;;4.95;3.10;;;;;;;10.07;100.00;100310.63;1733484;81;26403;-79
2022/01/01 02:53:19;;;;;;;6.62;3.87;;;;;;;10.06;100.00;100314.34;1724805;81;26569;-79
2022/01/01 02:55:46;;;;;;;4.85;3.50;;;;;;;10.03;100.00;100317.38;1720874;83;27592;-79
2022/01/01 02:58:13;;;;;;;5.45;3.45;;;;;;;10.01;100.00;100330.12;1721445;82;25953;-79
2022/01/01 03:00:41;;;;;;;4.58;3.37;;;;;;;10.00;100.00;100331.66;1725334;81;25868;-79
2022/01/01 03:03:07;;;;;;;6.20;3.85;;;;;;;9.98;100.00;100322.50;1728756;81;25889;-79
2022/01/01 03:05:35;;;;;;;7.92;3.40;;;;;;;9.98;100.00;100333.70;1725361;81;25882;-79
2022/01/01 03:08:02;;;;;;;4.55;3.85;;;;;;;9.97;100.00;100340.89;1729173;81;27626;-79
2022/01/01 03:10:28;;;;;;;6.17;3.67;;;;;;;9.97;100.00;100341.39;1724996;81;25536;-79
2022/01/01 03:12:54;;;;;;;5.60;3.80;;;;;;;9.96;100.00;100346.44;1732754;81;26666;-79
2022/01/01 03:15:20;;;;;;;6.00;3.50;;;;;;;9.96;100.00;100345.94;1725091;81;26237;-78
2022/01/01 03:17:49;;;;;;;5.17;3.50;;;;;;;9.95;100.00;100340.75;1678159;84;25821;-79
2022/01/01 03:20:15;;;;;;;4.72;3.20;;;;;;;9.93;100.00;100341.45;1690562;84;27454;-79
2022/01/01 03:22:41;;;;;;;5.45;3.50;;;;;;;9.93;100.00;100350.81;1700243;83;25936;-78
2022/01/01 03:25:07;;;;;;;4.47;3.10;;;;;;;9.94;100.00;100350.62;1685251;84;26575;-79
2022/01/01 03:27:34;;;;;;;6.87;3.12;;;;;;;9.91;100.00;100357.70;1681424;84;25772;-80
2022/01/01 03:30:00;;;;;;;4.75;2.70;;;;;;;9.89;100.00;100352.22;1683846;84;25882;-79
2022/01/01 03:32:26;;;;;;;3.47;2.70;;;;;;;9.88;100.00;100352.72;1680605;84;27529;-79
2022/01/01 03:34:52;;;;;;;4.30;2.98;;;;;;;9.88;100.00;100359.41;1726153;81;25908;-79
2022/01/01 03:37:19;;;;;;;4.67;3.37;;;;;;;9.85;100.00;100361.14;1730988;81;25776;-79
2022/01/01 03:39:45;;;;;;;4.25;2.80;;;;;;;9.84;100.00;100368.83;1727577;81;25975;-78
2022/01/01 03:42:11;;;;;;;3.55;2.58;;;;;;;9.82;100.00;100362.84;1720865;83;25768;-79
2022/01/01 03:44:37;;;;;;;5.30;2.85;;;;;;;9.82;100.00;100369.52;1730472;81;27521;-80
2022/01/01 03:47:09;;;;;;;3.40;2.40;;;;;;;9.81;100.00;100370.56;1723988;81;25814;-79
2022/01/01 03:49:32;;;;;;;5.72;2.98;;;;;;;9.79;100.00;100383.29;1724394;81;25917;-79
2022/01/01 03:51:58;;;;;;;3.67;3.00;;;;;;;9.77;100.00;100386.63;1720563;83;26218;-80
2022/01/01 03:54:25;;;;;;;5.00;3.22;;;;;;;9.77;100.00;100386.63;1724953;81;26424;-79
2022/01/01 03:56:51;;;;;;;3.70;2.75;;;;;;;9.79;100.00;100393.98;1725064;81;28326;-79
2022/01/01 03:59:17;;;;;;;4.35;2.92;;;;;;;9.79;100.00;100387.30;1729394;81;25813;-79
2022/01/01 04:01:43;;;;;;;3.35;2.60;;;;;;;9.77;100.00;100385.30;1724860;81;26118;-80
2022/01/01 04:04:09;;;;;;;3.45;2.50;;;;;;;9.73;100.00;100389.36;1720854;83;25945;-79
2022/01/01 04:06:36;;;;;;;2.62;1.85;;;;;;;9.70;100.00;100399.11;1722141;82;25818;-79
2022/01/01 04:09:02;;;;;;;3.22;1.80;;;;;;;9.67;99.74;100401.31;1729256;81;28346;-79
2022/01/01 04:11:28;;;;;;;2.45;1.70;;;;;;;9.65;100.00;100402.84;1727296;81;26533;-79
2022/01/01 04:13:55;;;;;;;1.87;1.45;;;;;;;9.64;99.40;100400.36;1728106;81;25732;-79
2022/01/01 04:16:22;;;;;;;1.52;1.30;;;;;;;9.61;99.52;100414.92;1727574;81;26253;-79
2022/01/01 04:18:49;;;;;;;1.35;1.20;;;;;;;9.59;99.20;100405.42;1728089;81;25854;-79
2022/01/01 04:21:16;;;;;;;1.30;1.10;;;;;;;9.55;98.69;100414.83;1731949;81;27509;-79
2022/01/01 04:23:45;;;;;;;1.92;1.52;;;;;;;9.53;98.74;100424.88;1725244;82;26469;-79
2022/01/01 04:26:11;;;;;;;1.77;1.27;;;;;;;9.53;98.71;100427.56;1728674;81;25752;-79
2022/01/01 04:28:40;;;;;;;1.67;1.32;;;;;;;9.51;98.91;100423.73;1728630;81;25904;-79
2022/01/01 04:31:08;;;;;;;1.35;1.20;;;;;;;9.53;98.98;100430.23;1728728;81;26485;-79
2022/01/01 04:33:35;;;;;;;2.95;0.90;;;;;;;9.53;99.03;100426.22;1724990;82;27675;-79
2022/01/01 04:36:02;;;;;;;2.50;1.30;;;;;;;9.52;98.74;100425.38;1728333;81;25866;-79
2022/01/01 04:38:36;;;;;;;1.40;1.27;;;;;;;9.51;98.58;100432.27;1729208;81;25707;-79
2022/01/01 04:40:58;;;;;;;;;;;;;;;9.48;98.30;100436.13;1730807;81;25847;-79
2022/01/01 04:43:25;;;;;;;1.30;1.02;;;;;;;9.46;98.62;100431.47;1732192;81;25916;-79
2022/01/01 04:45:51;;;;;;;1.67;1.10;;;;;;;9.44;98.52;100439.34;1728440;81;27647;-79
2022/01/01 04:48:17;;;;;;;1.02;0.82;;;;;;;9.44;98.82;100439.34;1727751;81;26464;-79
2022/01/01 04:50:43;;;;;;;0.75;0.70;;;;;;;9.44;98.84;100440.69;1729044;81;26491;-80
2022/01/01 04:53:15;;;;;;;2.55;0.85;;;;;;;9.44;98.66;100443.36;1731624;81;25755;-79
2022/01/01 04:55:38;;;;;;;2.10;1.65;;;;;;;9.45;98.73;100454.39;1731867;81;25846;-78
2022/01/01 04:58:04;;;;;;;1.45;1.00;;;;;;;9.45;98.99;100455.23;1735637;81;27466;-79
2022/01/01 05:00:30;;;;;;;1.90;1.20;;;;;;;9.46;98.92;100465.39;1736960;81;25823;-79
2022/01/01 05:02:56;;;;;;;1.47;1.32;;;;;;;9.47;99.02;100465.23;1730048;81;25841;-79
2022/01/01 05:05:23;;;;;;;2.55;2.10;;;;;;;9.48;98.93;100465.54;1728630;81;26670;-78
2022/01/01 05:07:50;;;;;;;5.08;2.15;;;;;;;9.49;99.14;100463.70;1731717;81;25753;-79
2022/01/01 05:10:17;;;;;;;2.80;2.02;;;;;;;9.49;99.13;100474.39;1724345;83;27425;-79
2022/01/01 05:12:43;;;;;;;3.67;2.20;;;;;;;9.48;99.24;100479.41;1731281;81;25923;-79
2022/01/01 05:15:10;;;;;;;3.35;2.52;;;;;;;9.48;99.28;100477.56;1728021;81;25811;-79
2022/01/01 05:17:36;;;;;;;4.10;3.10;;;;;;;9.45;99.31;100485.14;1728019;81;25814;-79
2022/01/01 05:20:04;;;;;;;4.55;3.30;;;;;;;9.43;99.40;100487.97;1731518;81;26014;-79
2022/01/01 05:22:30;;;;;;;4.25;2.90;;;;;;;9.40;99.54;100492.36;1729534;81;27449;-79
2022/01/01 05:24:59;;;;;;;4.08;2.70;;;;;;;9.39;99.62;100493.89;1730619;81;25728;-79
2022/01/01 05:27:25;;;;;;;3.62;2.87;;;;;;;9.37;99.67;100489.23;1735761;81;26250;-79
2022/01/01 05:29:51;;;;;;;3.95;2.90;;;;;;;9.35;99.60;100489.39;1731631;81;26480;-79
2022/01/01 05:32:18;;;;;;;3.92;3.15;;;;;;;9.34;99.72;100503.25;1679035;84;25765;-79
2022/01/01 05:34:44;;;;;;;4.87;3.22;;;;;;;9.33;99.84;100503.44;1679073;84;27531;-78
2022/01/01 05:37:10;;;;;;;3.17;2.62;;;;;;;9.34;99.85;100497.10;1683690;83;25841;-79
2022/01/01 05:39:37;;;;;;;3.12;2.75;;;;;;;9.33;99.82;100508.29;1701387;83;25318;-79
2022/01/01 05:42:04;;;;;;;3.00;2.50;;;;;;;9.32;99.77;100514.63;1678377;84;25810;-79
2022/01/01 05:44:30;;;;;;;3.37;2.70;;;;;;;9.31;99.88;100514.33;1685432;84;25771;-79
2022/01/01 05:46:56;;;;;;;5.58;2.33;;;;;;;9.30;99.93;100513.18;1681574;84;28112;-79
2022/01/01 05:49:23;;;;;;;4.47;2.50;;;;;;;9.30;99.94;100522.00;1681233;84;25846;-79
2022/01/01 05:51:49;;;;;;;3.45;2.37;;;;;;;9.31;100.00;100530.36;1732531;81;25874;-78
2022/01/01 05:54:15;;;;;;;2.92;2.50;;;;;;;9.31;99.97;100537.05;1730422;81;25867;-79
2022/01/01 05:56:41;;;;;;;3.70;2.33;;;;;;;9.31;99.94;100542.89;1681812;84;25751;-79
2022/01/01 05:59:08;;;;;;;3.98;2.52;;;;;;;9.32;99.99;100540.55;1667303;84;27453;-79
2022/01/01 06:01:34;;;;;;;2.35;1.95;;;;;;;9.32;100.00;100537.88;1682533;84;25729;-79
2022/01/01 06:04:00;;;;;;;3.80;2.22;;;;;;;9.35;99.94;100557.55;1732784;81;25754;-79
2022/01/01 06:06:26;;;;;;;2.00;1.47;;;;;;;9.33;99.80;100548.88;1726896;81;26494;-79
2022/01/01 06:08:53;;;;;;;2.72;2.10;;;;;;;9.32;99.66;100547.23;1728553;82;25814;-79
2022/01/01 06:11:19;;;;;;;3.00;2.20;;;;;;;9.32;99.81;100545.91;1722020;81;27449;-79
2022/01/01 06:13:45;;;;;;;3.22;1.90;;;;;;;9.30;99.69;100540.72;1722682;82;25786;-79
2022/01/01 06:16:11;;;;;;;2.55;1.77;;;;;;;9.31;99.69;100553.08;1726144;82;25819;-79
2022/01/01 06:18:37;;;;;;;2.27;1.87;;;;;;;9.30;99.72;100559.95;1722307;82;26457;-79
2022/01/01 06:21:04;;;;;;;2.55;1.92;;;;;;;9.32;99.71;100559.27;1722740;82;25901;-79
2022/01/01 06:23:31;;;;;;;2.77;1.60;;;;;;;9.30;99.48;100556.75;1724341;81;27472;-78
2022/01/01 06:25:57;;;;;;;2.00;1.52;;;;;;;9.29;99.45;100567.63;1726949;82;25902;-79
2022/01/01 06:28:23;;;;;;;2.08;1.87;;;;;;;9.29;99.48;100576.98;1719123;82;25788;-80
2022/01/01 06:30:49;;;;;;;2.62;2.00;;;;;;;9.28;99.35;100569.47;1721003;82;26463;-79
2022/01/01 06:33:18;;;;;;;2.42;1.80;;;;;;;9.28;99.30;100576.67;1722938;82;25791;-79
2022/01/01 06:35:46;;;;;;;3.12;2.25;;;;;;;9.26;99.11;100576.83;1724719;82;27695;-79
2022/01/01 06:38:13;;;;;;;2.15;1.95;;;;;;;9.25;98.96;100579.20;1724884;82;26499;-79
2022/01/01 06:40:41;;;;;;;2.52;2.33;;;;;;;9.21;99.07;100585.08;1722632;82;25870;-79
2022/01/01 06:43:09;;;;;;;2.27;2.08;;;;;;;9.20;99.10;100582.89;1728184;82;25840;-79
2022/01/01 06:45:36;;;;;;;2.72;2.52;;;;;;;9.20;99.09;100589.58;1688238;83;25733;-79
2022/01/01 06:48:02;;;;;;;3.27;2.65;;;;;;;9.20;99.18;100584.23;1687326;83;27629;-79
2022/01/01 06:50:29;;;;;;;2.60;2.40;;;;;;;9.22;99.11;100584.05;1670107;84;26471;-79
2022/01/01 06:52:55;;;;;;;2.98;2.65;;;;;;;9.21;99.21;100589.92;1665720;85;25841;-79
2022/01/01 06:55:21;;;;;;;2.80;2.52;;;;;;;9.22;99.19;100595.58;1670046;84;25845;-79
2022/01/01 06:57:48;;;;;;;4.83;2.95;;;;;;;9.20;99.13;100590.91;1670149;84;25905;-79
2022/01/01 07:00:16;;;;;;;4.25;3.17;;;;;;;9.23;99.12;100601.76;1669863;84;27487;-79
2022/01/01 07:02:45;;;;;;;3.52;3.05;;;;;;;9.21;98.98;100599.28;1665644;85;26506;-79
2022/01/01 07:05:13;;;;;;;3.50;3.20;;;;;;;9.22;99.02;100594.73;1676513;84;25762;-79
2022/01/01 07:07:40;;;;;;;3.75;3.42;;;;;;;9.22;99.01;100598.25;1677296;84;25823;-79
2022/01/01 07:10:10;;;;;;;3.87;3.12;;;;;;;9.21;98.97;100596.60;1683102;84;26471;-79
2022/01/01 07:12:38;;;;;;;4.12;3.62;;;;;;;9.22;98.97;100606.27;1667610;84;28160;-79
2022/01/01 07:15:07;;;;;;;4.50;3.70;;;;;;;9.24;99.08;100608.75;1677964;84;25844;-79
2022/01/01 07:17:33;;;;;;;4.92;4.05;;;;;;;9.27;99.06;100611.08;1680146;84;26591;-80
2022/01/01 07:19:59;;;;;;;5.15;4.00;;;;;;;9.29;98.97;100621.09;1679860;84;25848;-79
2022/01/01 07:22:25;;;;;;;4.72;4.25;;;;;;;9.28;98.82;100626.13;1675430;85;25912;-79
2022/01/01 07:24:52;;;;;;;5.53;4.20;;;;;;;9.29;98.73;100627.77;1675671;85;27465;-79
2022/01/01 07:27:20;;;;;;;5.97;4.97;;;;;;;9.28;98.75;100625.59;1679807;84;26598;-79
2022/01/01 07:29:47;;;;;;;5.12;4.53;;;;;;;9.29;98.72;100627.27;1679785;84;26472;-79
2022/01/01 07:32:13;;;;;;;5.00;4.55;;;;;;;9.28;98.64;100631.47;1675804;85;25849;-78
2022/01/01 07:34:39;;;;;;;5.67;5.12;;;;;;;9.27;98.65;100633.80;1678051;84;25601;-79
2022/01/01 07:37:06;;;;;;;5.83;3.92;;;;;;;9.25;98.65;100623.30;1681984;84;27511;-80
2022/01/01 07:39:32;;;;;;;4.40;4.00;;;;;;;9.23;98.61;100627.15;1679957;84;26442;-79
2022/01/01 07:41:58;;;;;;;6.12;4.47;;;;;;;9.23;98.69;100631.16;1685447;84;25919;-79
2022/01/01 07:44:24;;;;;;;3.65;3.37;;;;;;;9.23;98.73;100632.50;1687198;84;26044;-79
2022/01/01 07:46:52;;;;;;;4.50;3.75;;;;;;;9.21;98.64;100636.69;1683797;84;25945;-81
2022/01/01 07:49:18;;;;;;;4.33;3.62;;;;;;;9.20;98.73;100639.52;1689235;84;27469;-79
2022/01/01 07:51:45;;;;;;;3.87;3.50;;;;;;;9.20;98.92;100640.36;1687543;84;25872;-79
2022/01/01 07:54:11;;;;;;;3.40;2.95;;;;;;;9.21;98.97;100646.05;1677180;84;25966;-79
2022/01/01 07:56:37;;;;;;;3.45;3.02;;;;;;;9.21;98.99;100641.20;1685750;84;25983;-78
2022/01/01 07:59:03;;;;;;;3.27;2.98;;;;;;;9.21;98.96;100650.05;1682295;84;26572;-79
2022/01/01 08:01:29;;;;;;;2.72;2.52;;;;;;;9.23;99.09;100652.54;1683877;84;28025;-79
2022/01/01 08:04:01;;;;;;;4.40;2.60;;;;;;;9.24;99.16;100652.85;1681563;84;25741;-79
2022/01/01 08:06:24;;;;;;;3.95;2.75;;;;;;;9.26;99.21;100652.17;1670715;84;25773;-78
2022/01/01 08:08:50;;;;;;;2.77;2.50;;;;;;;9.26;99.23;100661.03;1667228;84;26891;-78
2022/01/01 08:11:16;;;;;;;6.95;3.80;;;;;;;9.28;99.29;100662.20;1658878;85;26445;-78
2022/01/01 08:13:42;;;;;;;3.70;3.15;;;;;;;9.28;99.33;100664.35;1723568;82;27613;-78
2022/01/01 08:16:09;;;;;;;4.22;3.02;;;;;;;9.28;99.41;100658.20;1724186;82;25750;-78
2022/01/01 08:18:35;;;;;;;20.17;10.32;;;;;;;9.29;99.60;100655.84;1724561;82;26241;-79
2022/01/01 08:21:01;;;;;;;10.78;6.42;;;;;;;9.31;99.61;100659.16;1724437;82;25755;-79
2022/01/01 08:23:27;;;;;;;5.78;4.58;;;;;;;9.31;99.65;100653.32;1723964;82;25908;-79
2022/01/01 08:25:56;;;;;;;5.33;4.80;;;;;;;9.34;99.75;100670.85;1724369;82;28308;-79
2022/01/01 08:28:22;;;;;;;4.12;3.50;;;;;;;9.34;99.77;100668.18;1724657;81;26023;-79
2022/01/01 08:30:48;;;;;;;3.58;3.17;;;;;;;9.36;99.84;100667.99;1723519;82;25874;-79
2022/01/01 08:33:15;;;;;;;2.65;2.45;;;;;;;9.37;99.91;100674.48;1724381;82;26482;-79
2022/01/01 08:35:41;;;;;;;4.42;3.05;;;;;;;9.38;99.93;100680.17;1724628;82;25763;-79
2022/01/01 08:38:08;;;;;;;4.83;3.08;;;;;;;9.39;99.95;100686.36;1724178;82;28264;-79
2022/01/01 08:40:35;;;;;;;5.30;2.72;;;;;;;9.39;100.00;100685.03;1724768;82;25791;-79
2022/01/01 08:43:02;;;;;;;3.50;2.80;;;;;;;9.40;100.00;100682.66;1723680;82;25961;-79
2022/01/01 08:45:29;;;;;;;4.25;3.25;;;;;;;9.41;100.00;100685.68;1724083;82;25788;-79
2022/01/01 08:47:55;;;;;;;5.00;4.03;;;;;;;9.41;100.00;100686.48;1724260;82;25910;-78
2022/01/01 08:50:21;;;;;;;6.65;4.55;;;;;;;9.41;100.00;100683.81;1723551;82;27433;-78
2022/01/01 08:52:48;;;;;;;8.40;4.58;;;;;;;9.42;100.00;100681.98;1723814;82;25766;-79
2022/01/01 08:55:14;;;;;;;8.10;4.20;;;;;;;9.44;100.00;100683.47;1725148;82;26393;-79
2022/01/01 08:57:40;;;;;;;4.80;4.05;;;;;;;9.46;100.00;100679.28;1723379;82;25931;-79
2022/01/01 09:00:10;;;;;;;6.72;4.78;;;;;;;9.47;100.00;100685.81;1712278;82;25973;-79
2022/01/01 09:02:38;;;;;;;5.33;4.15;;;;;;;9.48;100.00;100692.80;1718852;82;27473;-79
2022/01/01 09:05:05;;;;;;;8.15;4.65;;;;;;;9.50;100.00;100688.11;1707068;82;25779;-79
2022/01/01 09:07:32;;;;;;;6.70;4.70;;;;;;;9.51;100.00;100691.13;1713384;81;25341;-79
2022/01/01 09:10:00;;;;;;;7.12;5.30;;;;;;;9.52;100.00;100688.77;1733009;81;26553;-79
2022/01/01 09:12:28;;;;;;;5.87;4.97;;;;;;;9.53;100.00;100694.95;1696239;83;26063;-79
2022/01/01 09:14:55;;;;;;;8.58;4.58;;;;;;;9.55;100.00;100694.27;1677083;84;27621;-79
2022/01/01 09:17:23;;;;;;;7.50;4.75;;;;;;;9.56;100.00;100691.41;1684269;84;25891;-78
2022/01/01 09:19:50;;;;;;;9.13;4.65;;;;;;;9.58;100.00;100689.38;1722216;81;25755;-78
2022/01/01 09:22:18;;;;;;;5.90;3.85;;;;;;;9.62;100.00;100685.38;1682705;84;25936;-79
2022/01/01 09:24:44;;;;;;;5.90;4.22;;;;;;;9.64;100.00;100682.51;1686604;84;25825;-78
2022/01/01 09:27:11;;;;;;;6.30;4.42;;;;;;;9.66;100.00;100688.02;1670845;85;27515;-78
2022/01/01 09:29:37;;;;;;;10.25;7.15;;;;;;;9.68;100.00;100685.98;1730157;81;25915;-78
2022/01/01 09:32:04;;;;;;;6.72;4.60;;;;;;;9.71;100.00;100686.95;1726650;81;26069;-79
2022/01/01 09:34:30;;;;;;;5.15;4.58;;;;;;;9.74;100.00;100691.11;1733239;81;26622;-79
2022/01/01 09:36:57;;;;;;;7.92;5.08;;;;;;;9.78;100.00;100688.41;1727787;81;25851;-79
2022/01/01 09:39:25;;;;;;;6.42;4.95;;;;;;;9.82;100.00;100684.35;1722797;81;28277;-78
2022/01/01 09:41:51;;;;;;;5.87;4.70;;;;;;;9.85;100.00;100690.70;1734774;81;25991;-80
2022/01/01 09:44:20;;;;;;;6.28;4.75;;;;;;;9.87;100.00;100692.19;1725655;81;25745;-81
2022/01/01 09:46:50;;;;;;;5.17;4.42;;;;;;;9.89;100.00;100690.16;1723023;81;25783;-79
2022/01/01 09:49:18;;;;;;;5.58;4.25;;;;;;;9.91;100.00;100696.16;1696697;83;25402;-80
2022/01/01 09:51:46;;;;;;;5.25;4.58;;;;;;;9.95;100.00;100700.63;1705335;83;27550;-81
2022/01/01 09:54:12;;;;;;;4.47;4.08;;;;;;;9.97;100.00;100698.11;1682180;84;25983;-81
2022/01/01 09:56:39;;;;;;;4.97;3.85;;;;;;;10.01;100.00;100705.27;1680568;84;25575;-78
2022/01/01 09:59:06;;;;;;;4.08;3.40;;;;;;;10.04;100.00;100701.73;1684965;84;26412;-78
2022/01/01 10:01:32;;;;;;;3.90;3.35;;;;;;;10.06;100.00;100698.88;1726332;81;25908;-78
2022/01/01 10:03:59;;;;;;;3.90;2.35;;;;;;;10.07;100.00;100698.68;1730440;81;27435;-78
2022/01/01 10:06:29;;;;;;;2.85;2.40;;;;;;;10.12;100.00;100700.85;1730442;81;25822;-78
2022/01/01 10:09:07;;;;;;;3.05;2.25;;;;;;;10.13;100.00;100701.69;1695771;83;25811;-78
2022/01/01 10:11:33;;;;;;;2.45;2.25;;;;;;;10.15;100.00;100700.50;1676843;84;25892;-77
2022/01/01 10:14:06;;;;;;;2.70;2.50;;;;;;;10.17;100.00;100689.10;1684450;84;25807;-78
2022/01/01 10:16:42;;;;;;;2.15;1.80;;;;;;;10.18;100.00;100697.45;1690663;84;27171;-77
2022/01/01 10:19:08;;;;;;;2.70;1.80;;;;;;;10.18;99.42;100691.28;1689225;84;25861;-78
2022/01/01 10:21:39;;;;;;;1.87;1.67;;;;;;;10.18;99.33;100710.02;1668495;84;25829;-78
2022/01/01 10:24:03;;;;;;;1.75;1.47;;;;;;;10.19;99.07;100707.16;1677551;84;25831;-78
2022/01/01 10:29:27;;;;;;;1.35;1.25;;;;;;;10.26;99.16;100713.95;1674549;84;27457;-78
2022/01/01 10:32:10;;;;;;;1.55;1.05;;;;;;;10.29;98.88;100713.57;1679823;84;25895;-78
2022/01/01 10:34:43;;;;;;;1.75;1.40;;;;;;;10.31;98.60;100712.38;1689432;84;25866;-78
2022/01/01 10:37:11;;;;;;;1.55;1.17;;;;;;;10.34;98.32;100716.55;1676401;84;25941;-78
2022/01/01 10:39:54;;;;;;;1.92;1.60;;;;;;;10.37;98.53;100715.66;1671909;84;26459;-78
2022/01/01 10:42:22;;;;;;;4.83;1.40;;;;;;;10.42;98.46;100724.48;1684127;84;27487;-78
2022/01/01 10:44:51;;;;;;;2.52;1.60;;;;;;;10.48;98.52;100723.75;1681987;84;26582;-78
2022/01/01 10:47:28;;;;;;;2.20;1.55;;;;;;;10.57;98.42;100728.02;1679609;84;25772;-78
2022/01/01 10:50:14;;;;;;;1.20;1.02;;;;;;;10.60;98.21;100745.91;1679188;84;25740;-78
2022/01/01 10:52:33;;;;;;;2.37;1.35;;;;;;;10.63;97.93;100742.85;1678956;84;26652;-78
2022/01/01 10:55:03;;;;;;;2.05;1.75;;;;;;;10.62;97.63;100737.69;1676214;84;27548;-78
2022/01/01 10:57:42;;;;;;;2.13;1.93;;;;;;;10.59;96.76;100735.36;1682526;84;27021;-78
2022/01/01 11:00:16;;;;;;;2.30;1.80;;;;;;;10.56;96.63;100750.48;1683857;84;25926;-78
2022/01/01 11:02:52;;;;;;;3.55;2.17;;;;;;;10.53;96.53;100758.36;1675325;85;26571;-78
2022/01/01 11:05:34;;;;;;;3.00;2.52;;;;;;;10.51;96.34;100762.23;1687512;84;25759;-78
2022/01/01 11:08:04;;;;;;;3.55;2.58;;;;;;;10.46;95.99;100760.09;1684705;84;27706;-78
2022/01/01 11:10:30;;;;;;;3.85;2.62;;;;;;;10.45;96.17;100766.48;1688745;84;26432;-78
2022/01/01 11:13:00;;;;;;;2.55;2.27;;;;;;;10.43;96.20;100763.16;1684020;84;25905;-78
2022/01/01 11:15:29;;;;;;;2.55;2.35;;;;;;;10.43;96.33;100771.19;1682454;84;25883;-78
2022/01/01 11:17:57;;;;;;;2.75;2.25;;;;;;;10.44;96.02;100778.70;1684875;84;26028;-78
2022/01/01 11:20:27;;;;;;;2.92;2.45;;;;;;;10.45;96.03;100767.83;1682028;84;28251;-78
2022/01/01 11:22:53;;;;;;;2.50;2.30;;;;;;;10.47;96.57;100771.16;1683091;84;26596;-79
2022/01/01 11:25:19;;;;;;;2.42;2.20;;;;;;;10.48;95.90;100781.33;1683180;84;25728;-79
2022/01/01 11:27:46;;;;;;;2.62;2.40;;;;;;;10.47;95.60;100777.01;1685547;84;26467;-78
2022/01/01 11:30:14;;;;;;;2.85;2.35;;;;;;;10.46;95.64;100776.17;1686604;84;25911;-79
2022/01/01 11:32:50;;;;;;;2.92;2.62;;;;;;;10.45;95.55;100792.42;1640545;84;27480;-79
2022/01/01 11:35:30;;;;;;;4.03;2.42;;;;;;;10.44;94.79;100790.25;1672071;84;25783;-79